Time;durP1;ratioP1;P1;durP2;ratioP2;P2;SDS_P1;SDS_P2;PMS_P1;PMS_P2;Temp;Humidity;BMP_temperature;BMP_pressure;BME280_temperature;BME280_humidity;BME280_pressure;Samples;Min_cycle;Max_cycle;Signal;HPM_P1;HPM_P2
2022/12/06 00:01:31;;;;;;;6.70;2.80;;;5.90;99.90;;;;;;5110823;27;20053;-68
2022/12/06 00:03:59;;;;;;;8.18;2.92;;;5.80;99.90;;;;;;5130999;27;20034;-68
2022/12/06 00:06:27;;;;;;;4.78;2.90;;;5.80;99.90;;;;;;5107714;27;20482;-68
2022/12/06 00:08:54;;;;;;;6.72;2.60;;;5.70;99.90;;;;;;5103624;27;20028;-68
2022/12/06 00:11:22;;;;;;;8.15;2.63;;;5.60;99.90;;;;;;5098320;27;20031;-68
2022/12/06 00:13:52;;;;;;;9.77;2.78;;;5.50;99.90;;;;;;5101173;27;20023;-68
2022/12/06 00:16:18;;;;;;;5.85;2.83;;;5.50;99.90;;;;;;5098858;27;20058;-68
2022/12/06 00:18:45;;;;;;;5.57;2.75;;;5.50;99.90;;;;;;5102039;27;20125;-68
2022/12/06 00:21:12;;;;;;;4.78;2.55;;;5.50;99.90;;;;;;5117428;27;20042;-68
2022/12/06 00:23:42;;;;;;;6.93;3.00;;;5.60;99.90;;;;;;5083644;28;20394;-68
2022/12/06 00:26:09;;;;;;;5.93;3.15;;;5.50;99.90;;;;;;5116267;27;20032;-68
2022/12/06 00:28:36;;;;;;;6.50;3.05;;;5.60;99.90;;;;;;5104559;27;20069;-67
2022/12/06 00:31:05;;;;;;;7.25;2.53;;;5.60;99.90;;;;;;5125766;27;20421;-68
2022/12/06 00:33:31;;;;;;;8.60;2.75;;;5.70;99.90;;;;;;5107719;27;20461;-68
2022/12/06 00:35:57;;;;;;;7.13;3.00;;;5.70;99.90;;;;;;5140146;27;20054;-68
2022/12/06 00:38:23;;;;;;;10.32;3.75;;;5.80;99.90;;;;;;5133702;27;20045;-68
2022/12/06 00:40:50;;;;;;;15.18;3.03;;;5.80;99.90;;;;;;5121080;27;20039;-68
2022/12/06 00:43:15;;;;;;;7.30;3.70;;;5.90;99.90;;;;;;5098396;28;20031;-68
2022/12/06 00:45:43;;;;;;;9.55;3.22;;;5.90;99.90;;;;;;5106329;27;20053;-68
2022/12/06 00:48:08;;;;;;;9.45;4.03;;;5.90;99.90;;;;;;5123071;27;20038;-68
2022/12/06 00:50:35;;;;;;;11.27;3.40;;;6.00;99.90;;;;;;5099346;27;20023;-68
2022/12/06 00:53:00;;;;;;;8.65;3.50;;;6.10;99.90;;;;;;5098999;28;20034;-68
2022/12/06 00:55:26;;;;;;;11.98;3.80;;;6.10;99.90;;;;;;5116202;28;20027;-68
2022/12/06 00:57:51;;;;;;;9.32;3.25;;;6.10;99.90;;;;;;5106150;27;20027;-68
2022/12/06 01:00:17;;;;;;;9.40;3.53;;;6.20;99.90;;;;;;5131147;27;20236;-68
2022/12/06 01:02:43;;;;;;;11.05;3.53;;;6.10;99.90;;;;;;5121805;27;20038;-68
2022/12/06 01:05:08;;;;;;;7.15;3.00;;;6.20;99.90;;;;;;5125350;27;20550;-68
2022/12/06 01:07:34;;;;;;;7.22;3.20;;;6.20;99.90;;;;;;5101654;27;20027;-68
2022/12/06 01:10:00;;;;;;;14.32;4.00;;;6.20;99.90;;;;;;5100719;27;20087;-68
2022/12/06 01:12:25;;;;;;;7.68;3.40;;;6.30;99.90;;;;;;5144399;27;20105;-68
2022/12/06 01:14:51;;;;;;;8.60;3.38;;;6.20;99.90;;;;;;5122738;27;20054;-67
2022/12/06 01:17:16;;;;;;;7.82;3.10;;;6.30;99.90;;;;;;5104850;27;20113;-68
2022/12/06 01:19:42;;;;;;;8.10;3.63;;;6.30;99.90;;;;;;5109203;27;20038;-67
2022/12/06 01:22:07;;;;;;;11.27;4.03;;;6.30;99.90;;;;;;5120445;27;20043;-68
2022/12/06 01:24:33;;;;;;;7.57;3.25;;;6.30;99.90;;;;;;5118595;27;20460;-68
2022/12/06 01:26:59;;;;;;;5.55;2.92;;;6.40;99.90;;;;;;5141041;27;20030;-68
2022/12/06 01:29:24;;;;;;;6.70;3.30;;;6.40;99.90;;;;;;5140531;27;20154;-68
2022/12/06 01:31:50;;;;;;;6.10;3.65;;;6.20;99.90;;;;;;5112401;27;20119;-68
2022/12/06 01:34:16;;;;;;;7.88;3.38;;;6.20;99.90;;;;;;5112545;27;20074;-68
2022/12/06 01:36:43;;;;;;;13.52;3.88;;;6.10;99.90;;;;;;5115494;27;20061;-68
2022/12/06 01:39:09;;;;;;;10.60;3.30;;;6.20;99.90;;;;;;5136072;27;20037;-68
2022/12/06 01:41:36;;;;;;;6.75;2.92;;;6.10;99.90;;;;;;5140931;27;20055;-68
2022/12/06 01:44:03;;;;;;;11.98;4.00;;;6.10;99.90;;;;;;5131034;27;20035;-68
2022/12/06 01:46:35;;;;;;;6.95;3.13;;;6.10;99.90;;;;;;5117969;27;20087;-68
2022/12/06 01:49:12;;;;;;;7.72;3.00;;;6.10;99.90;;;;;;5117554;27;20027;-67
2022/12/06 01:51:42;;;;;;;8.90;2.97;;;6.00;99.90;;;;;;5121271;27;20035;-67
2022/12/06 01:54:11;;;;;;;7.55;2.67;;;5.90;99.90;;;;;;5117641;27;20059;-67
2022/12/06 01:56:38;;;;;;;5.97;3.03;;;5.80;99.90;;;;;;5111119;27;20036;-68
2022/12/06 01:59:06;;;;;;;9.07;3.28;;;5.80;99.90;;;;;;5105338;27;20051;-68
2022/12/06 02:01:32;;;;;;;5.35;2.50;;;5.70;99.90;;;;;;5102116;27;20461;-68
2022/12/06 02:04:00;;;;;;;5.80;2.70;;;5.60;99.90;;;;;;5101703;28;20023;-68
2022/12/06 02:06:28;;;;;;;6.80;2.80;;;5.50;99.90;;;;;;5127064;27;20145;-68
2022/12/06 02:08:57;;;;;;;6.90;3.10;;;5.40;99.90;;;;;;5123047;27;20038;-67
2022/12/06 02:11:22;;;;;;;8.48;3.05;;;5.30;99.90;;;;;;5108909;27;20128;-68
2022/12/06 02:13:48;;;;;;;9.50;2.40;;;5.20;99.90;;;;;;5122283;27;20058;-67
2022/12/06 02:16:29;;;;;;;5.53;2.60;;;5.20;99.90;;;;;;5119249;27;20233;-67
2022/12/06 02:19:04;;;;;;;6.78;3.00;;;5.10;99.90;;;;;;5135146;27;20397;-67
2022/12/06 02:21:51;;;;;;;7.32;2.80;;;5.10;99.90;;;;;;5127254;27;20118;-67
2022/12/06 02:24:38;;;;;;;4.85;2.15;;;5.00;99.90;;;;;;5100828;28;20185;-68
2022/12/06 02:27:06;;;;;;;7.68;2.60;;;4.90;99.90;;;;;;5118247;27;20022;-67
2022/12/06 02:30:01;;;;;;;5.78;2.08;;;4.60;99.90;;;;;;5140738;27;20034;-68
2022/12/06 02:32:39;;;;;;;4.40;2.17;;;4.60;99.90;;;;;;5122179;27;20018;-68
2022/12/06 02:35:10;;;;;;;4.97;2.45;;;4.60;99.90;;;;;;5121519;27;20672;-68
2022/12/06 02:37:47;;;;;;;4.45;2.30;;;4.50;99.90;;;;;;5135757;27;20510;-68
2022/12/06 02:40:19;;;;;;;6.18;2.15;;;4.50;99.90;;;;;;5102116;27;20680;-68
2022/12/06 02:42:53;;;;;;;7.82;2.05;;;4.50;99.90;;;;;;5080186;28;20136;-68
2022/12/06 02:45:25;;;;;;;6.45;2.50;;;4.50;99.90;;;;;;5097202;28;20437;-68
2022/12/06 02:47:55;;;;;;;4.05;2.28;;;4.40;99.90;;;;;;5094767;27;20464;-67
2022/12/06 02:50:27;;;;;;;6.93;2.25;;;4.40;99.90;;;;;;5125722;27;20023;-68
2022/12/06 02:52:53;;;;;;;4.18;2.08;;;4.30;99.90;;;;;;5121935;27;20031;-68
2022/12/06 02:55:21;;;;;;;5.25;2.03;;;4.30;99.90;;;;;;5098628;28;20053;-68
2022/12/06 02:57:49;;;;;;;7.85;2.60;;;4.30;99.90;;;;;;5124652;27;20027;-67
2022/12/06 03:00:42;;;;;;;7.82;2.35;;;4.30;99.90;;;;;;5139269;27;20053;-67
2022/12/06 03:03:29;;;;;;;5.35;3.00;;;4.20;99.90;;;;;;5060687;28;20039;-67
2022/12/06 03:06:01;;;;;;;8.05;2.65;;;4.20;99.90;;;;;;5120733;27;20429;-67
2022/12/06 03:08:41;;;;;;;8.85;3.10;;;4.10;99.90;;;;;;5140612;27;20022;-68
2022/12/06 03:11:07;;;;;;;7.53;2.80;;;4.10;99.90;;;;;;5124915;27;20031;-67
2022/12/06 03:13:35;;;;;;;8.85;3.10;;;4.00;99.90;;;;;;5109983;27;20031;-67
2022/12/06 03:16:07;;;;;;;7.03;3.15;;;3.90;99.90;;;;;;5116386;27;20369;-68
2022/12/06 03:18:37;;;;;;;;;;;3.90;99.90;;;;;;5104927;27;20026;-68
2022/12/06 03:21:12;;;;;;;6.53;2.28;;;3.80;99.90;;;;;;5134105;27;19907;-68
2022/12/06 03:23:47;;;;;;;4.97;2.78;;;3.80;99.90;;;;;;5113977;27;20155;-67
2022/12/06 03:26:20;;;;;;;10.18;3.15;;;3.80;99.90;;;;;;5129054;27;20079;-67
2022/12/06 03:28:49;;;;;;;9.65;3.20;;;3.80;99.90;;;;;;5117977;27;20413;-67
2022/12/06 03:31:15;;;;;;;7.57;3.17;;;3.80;99.90;;;;;;5098565;27;20031;-67
2022/12/06 03:33:48;;;;;;;7.63;3.13;;;3.80;99.90;;;;;;5110145;27;20042;-67
2022/12/06 03:36:15;;;;;;;11.55;3.40;;;3.80;99.90;;;;;;5119027;27;20091;-67
2022/12/06 03:38:50;;;;;;;7.82;3.38;;;3.80;99.90;;;;;;5139662;27;20474;-67
2022/12/06 03:41:17;;;;;;;7.63;2.88;;;3.70;99.90;;;;;;5115468;27;20454;-67
2022/12/06 03:43:43;;;;;;;10.27;3.05;;;3.70;99.90;;;;;;5100619;27;20027;-68
2022/12/06 03:46:19;;;;;;;10.43;3.08;;;3.70;99.90;;;;;;5104352;27;20485;-68
2022/12/06 03:49:06;;;;;;;6.88;2.65;;;3.60;99.90;;;;;;5099459;28;20063;-68
2022/12/06 03:51:34;;;;;;;8.32;2.83;;;3.60;99.90;;;;;;5093941;27;20031;-67
2022/12/06 03:54:03;;;;;;;7.18;2.45;;;3.50;99.90;;;;;;5095980;28;20432;-68
2022/12/06 03:56:30;;;;;;;10.40;2.90;;;3.50;99.90;;;;;;5104110;27;20387;-68
2022/12/06 03:58:56;;;;;;;6.53;3.30;;;3.40;99.90;;;;;;5135340;27;20031;-68
2022/12/06 04:01:21;;;;;;;7.72;2.75;;;3.40;99.90;;;;;;5133891;27;20042;-67
2022/12/06 04:03:47;;;;;;;5.82;2.90;;;3.40;99.90;;;;;;5112254;27;20328;-67
2022/12/06 04:06:13;;;;;;;6.47;2.92;;;3.40;99.90;;;;;;5118087;27;20034;-67
2022/12/06 04:08:39;;;;;;;9.68;2.70;;;3.30;99.90;;;;;;5134517;27;20031;-67
2022/12/06 04:11:05;;;;;;;11.13;2.78;;;3.30;99.90;;;;;;5139044;27;20081;-67
2022/12/06 04:13:31;;;;;;;4.93;2.47;;;3.30;99.90;;;;;;5102632;27;20058;-67
2022/12/06 04:15:59;;;;;;;8.15;3.17;;;3.20;99.90;;;;;;5103304;27;20033;-67
2022/12/06 04:18:26;;;;;;;4.88;2.88;;;3.20;99.90;;;;;;5135894;27;20361;-67
2022/12/06 04:23:37;;;;;;;6.82;2.70;;;3.20;99.90;;;;;;5116408;27;20057;-67
2022/12/06 04:26:05;;;;;;;6.72;2.90;;;3.20;99.90;;;;;;5115225;27;20023;-68
2022/12/06 04:39:29;;;;;;;9.27;3.17;;;3.10;99.90;;;;;;5117057;27;20212;-67
2022/12/06 04:44:39;;;;;;;7.60;3.10;;;3.10;99.90;;;;;;5096742;28;20039;-67
2022/12/06 04:47:06;;;;;;;8.43;3.20;;;3.20;99.90;;;;;;5117625;27;20027;-67
2022/12/06 04:49:32;;;;;;;6.15;3.00;;;3.10;99.90;;;;;;5138578;27;20256;-67
2022/12/06 04:51:57;;;;;;;8.73;2.75;;;3.10;99.90;;;;;;5099185;27;20023;-68
2022/12/06 04:54:24;;;;;;;6.32;2.85;;;2.90;99.90;;;;;;5096545;28;20032;-67
2022/12/06 04:56:49;;;;;;;8.00;2.67;;;2.90;99.90;;;;;;5128689;27;20027;-67
2022/12/06 04:59:15;;;;;;;6.70;2.40;;;2.90;99.90;;;;;;5093003;28;20375;-68
2022/12/06 05:01:41;;;;;;;9.10;2.83;;;2.90;99.90;;;;;;5113897;27;20153;-67
2022/12/06 05:04:06;;;;;;;9.63;3.10;;;2.90;99.90;;;;;;5130828;27;20536;-67
2022/12/06 05:06:32;;;;;;;7.80;2.92;;;2.90;99.90;;;;;;5115947;27;20026;-67
2022/12/06 05:08:58;;;;;;;9.30;3.55;;;3.00;99.90;;;;;;5115323;28;20396;-67
2022/12/06 05:11:23;;;;;;;8.05;3.50;;;3.00;99.90;;;;;;5084705;28;20038;-67
2022/12/06 05:13:49;;;;;;;4.30;2.67;;;3.10;99.90;;;;;;5095460;28;20490;-67
2022/12/06 05:16:15;;;;;;;5.00;3.10;;;3.10;99.90;;;;;;5094771;28;20182;-68
2022/12/06 05:18:40;;;;;;;12.73;3.97;;;3.10;99.90;;;;;;5116319;27;20023;-67
2022/12/06 05:21:16;;;;;;;8.20;3.53;;;3.10;99.90;;;;;;5124629;27;20059;-68
2022/12/06 05:23:41;;;;;;;6.93;2.53;;;3.10;99.90;;;;;;5132029;27;20165;-67
2022/12/06 05:26:11;;;;;;;7.38;2.88;;;3.10;99.90;;;;;;5135051;27;20118;-68
2022/12/06 05:28:36;;;;;;;6.07;3.22;;;3.10;99.90;;;;;;5125126;27;20035;-68
2022/12/06 05:31:02;;;;;;;4.75;2.90;;;3.10;99.90;;;;;;5107773;27;20015;-67
2022/12/06 05:33:29;;;;;;;8.73;2.95;;;3.00;99.90;;;;;;5118452;27;20501;-68
2022/12/06 05:35:54;;;;;;;6.10;2.83;;;3.00;99.90;;;;;;5117750;27;20110;-67
2022/12/06 05:38:20;;;;;;;5.20;2.65;;;3.10;99.90;;;;;;5114426;27;20446;-67
2022/12/06 05:40:46;;;;;;;7.18;2.63;;;3.00;99.90;;;;;;5105013;27;20479;-67
2022/12/06 05:43:13;;;;;;;8.68;2.78;;;2.90;99.90;;;;;;5109116;27;20149;-67
2022/12/06 05:45:39;;;;;;;6.45;3.25;;;2.90;99.90;;;;;;5116768;27;20027;-67
2022/12/06 05:48:05;;;;;;;7.38;3.42;;;2.90;99.90;;;;;;5119073;27;20038;-68
2022/12/06 05:50:32;;;;;;;7.38;3.33;;;2.90;99.90;;;;;;5126687;27;20497;-67
2022/12/06 05:52:59;;;;;;;7.07;3.53;;;2.90;99.90;;;;;;5139246;27;20083;-68
2022/12/06 05:55:25;;;;;;;8.45;3.70;;;2.90;99.90;;;;;;5138905;27;20734;-67
2022/12/06 05:57:51;;;;;;;7.72;2.80;;;2.90;99.90;;;;;;5109489;27;20046;-67
2022/12/06 06:00:18;;;;;;;7.03;3.17;;;2.90;99.90;;;;;;5101252;27;20040;-67
2022/12/06 06:02:43;;;;;;;6.07;2.78;;;2.80;99.90;;;;;;5115003;27;20462;-68
2022/12/06 06:05:09;;;;;;;11.25;3.58;;;2.80;99.90;;;;;;5102843;27;20030;-68
2022/12/06 06:07:35;;;;;;;8.55;3.15;;;2.70;99.90;;;;;;5117993;27;20093;-67
2022/12/06 06:10:01;;;;;;;10.85;2.80;;;2.70;99.90;;;;;;5110569;27;20463;-67
2022/12/06 06:12:26;;;;;;;6.80;2.83;;;2.70;99.90;;;;;;5120882;27;20126;-68
2022/12/06 06:14:52;;;;;;;9.52;3.05;;;2.60;99.90;;;;;;5093179;28;20092;-68
2022/12/06 06:17:18;;;;;;;11.85;3.63;;;2.60;99.90;;;;;;5123576;27;20023;-67
2022/12/06 06:19:44;;;;;;;8.52;3.33;;;2.60;99.90;;;;;;5120758;27;20037;-67
2022/12/06 06:22:09;;;;;;;6.85;2.63;;;2.60;99.90;;;;;;5121355;27;20043;-68
2022/12/06 06:24:36;;;;;;;5.70;2.90;;;2.60;99.90;;;;;;5119248;27;20436;-68
2022/12/06 06:27:02;;;;;;;8.20;3.35;;;2.60;99.90;;;;;;5103086;27;20027;-68
2022/12/06 06:29:28;;;;;;;6.53;2.95;;;2.60;99.90;;;;;;5115014;27;20418;-68
2022/12/06 06:31:54;;;;;;;9.30;2.97;;;2.60;99.90;;;;;;5110144;27;20170;-67
2022/12/06 06:34:19;;;;;;;11.50;3.92;;;2.60;99.90;;;;;;5132048;27;20121;-67
2022/12/06 06:36:45;;;;;;;5.43;3.17;;;2.50;99.90;;;;;;5106554;27;20031;-68
2022/12/06 06:39:10;;;;;;;35.03;14.23;;;2.50;99.90;;;;;;5097164;28;20110;-68
2022/12/06 06:41:36;;;;;;;12.85;4.38;;;2.50;99.90;;;;;;5083020;28;20084;-68
2022/12/06 06:44:02;;;;;;;9.20;3.50;;;2.50;99.90;;;;;;5106656;27;20098;-68
2022/12/06 06:46:28;;;;;;;6.22;3.17;;;2.50;99.90;;;;;;5107734;27;20043;-68
2022/12/06 06:48:53;;;;;;;5.97;3.20;;;2.50;99.90;;;;;;5100407;28;20502;-67
2022/12/06 06:51:19;;;;;;;4.20;2.65;;;2.40;99.90;;;;;;5111604;27;20036;-67
2022/12/06 06:53:45;;;;;;;8.23;3.40;;;2.30;99.90;;;;;;5101773;27;20062;-68
2022/12/06 06:56:10;;;;;;;5.82;2.85;;;2.20;99.90;;;;;;5098180;27;20234;-67
2022/12/06 06:58:36;;;;;;;6.05;3.30;;;2.20;99.90;;;;;;5110597;27;20039;-67
2022/12/06 07:01:04;;;;;;;7.80;3.05;;;2.10;99.90;;;;;;5113581;27;20086;-68
2022/12/06 07:03:30;;;;;;;7.40;2.92;;;2.20;99.90;;;;;;5099300;27;20034;-67
2022/12/06 07:06:16;;;;;;;7.07;3.00;;;2.20;99.90;;;;;;5117864;27;20186;-68
2022/12/06 07:08:42;;;;;;;6.65;2.95;;;2.10;99.90;;;;;;5099496;28;20202;-67
2022/12/06 07:11:09;;;;;;;6.72;2.97;;;2.10;99.90;;;;;;5104773;27;20047;-67
2022/12/06 07:13:36;;;;;;;6.30;3.40;;;2.00;99.90;;;;;;5106150;27;20030;-67
2022/12/06 07:16:04;;;;;;;8.02;3.28;;;2.10;99.90;;;;;;5128925;27;20530;-67
2022/12/06 07:18:29;;;;;;;5.78;3.25;;;2.00;99.90;;;;;;5115429;27;20410;-67
2022/12/06 07:21:02;;;;;;;9.18;2.92;;;2.00;99.90;;;;;;5117190;27;20030;-68
2022/12/06 07:23:28;;;;;;;7.10;2.95;;;2.10;99.90;;;;;;5110258;27;20107;-71
2022/12/06 07:26:05;;;;;;;7.63;3.22;;;2.10;99.90;;;;;;5119642;27;20031;-68
2022/12/06 07:28:32;;;;;;;7.22;3.10;;;2.00;99.90;;;;;;4750141;27;10000500;-68
2022/12/06 07:31:05;;;;;;;6.93;2.80;;;2.00;99.90;;;;;;5099867;27;20034;-68
2022/12/06 07:33:31;;;;;;;6.43;3.10;;;2.00;99.90;;;;;;5109799;27;20167;-68
2022/12/06 07:35:56;;;;;;;8.77;3.45;;;2.10;99.90;;;;;;5106156;27;20195;-67
2022/12/06 07:38:22;;;;;;;6.35;3.38;;;2.00;99.90;;;;;;5103474;27;20438;-68
2022/12/06 07:40:48;;;;;;;16.33;6.05;;;2.00;99.90;;;;;;5107727;27;20033;-68
2022/12/06 07:45:57;;;;;;;6.72;3.42;;;2.00;99.90;;;;;;5106466;27;20035;-68
2022/12/06 07:48:23;;;;;;;8.35;3.13;;;2.10;99.90;;;;;;5095387;27;20428;-68
2022/12/06 07:50:48;;;;;;;9.48;3.30;;;2.20;99.90;;;;;;5116573;27;20023;-68
2022/12/06 07:53:14;;;;;;;8.10;3.53;;;2.10;99.90;;;;;;5097789;27;20370;-67
2022/12/06 07:55:40;;;;;;;9.07;3.33;;;2.00;99.90;;;;;;5115787;27;20114;-67
2022/12/06 07:58:05;;;;;;;10.98;3.67;;;2.10;99.90;;;;;;5096820;27;20027;-67
2022/12/06 08:00:31;;;;;;;5.53;3.00;;;2.10;99.90;;;;;;5096114;27;20047;-68
2022/12/06 08:02:57;;;;;;;6.68;2.95;;;2.20;99.90;;;;;;5079690;28;20444;-68
2022/12/06 08:05:22;;;;;;;6.35;2.83;;;2.20;99.90;;;;;;5099398;27;20339;-67
2022/12/06 08:07:48;;;;;;;6.35;2.72;;;2.20;99.90;;;;;;5116085;27;20293;-67
2022/12/06 08:10:14;;;;;;;7.43;3.85;;;2.20;99.90;;;;;;5121981;27;20030;-67
2022/12/06 08:12:39;;;;;;;8.05;3.40;;;2.30;99.90;;;;;;5116665;27;20027;-68
2022/12/06 08:25:45;;;;;;;5.65;3.45;;;2.30;99.90;;;;;;5067317;27;20473;-71
2022/12/06 08:28:11;;;;;;;7.20;2.65;;;2.60;99.90;;;;;;5047577;28;20159;-71
2022/12/06 08:30:40;;;;;;;8.90;3.08;;;2.80;99.90;;;;;;5043276;28;20086;-71
2022/12/06 08:33:06;;;;;;;5.40;2.72;;;3.00;99.90;;;;;;5045844;28;20443;-71
2022/12/06 08:35:36;;;;;;;14.27;3.05;;;3.30;99.90;;;;;;5058805;28;20115;-71
2022/12/06 08:38:01;;;;;;;5.18;2.88;;;3.40;99.90;;;;;;5054005;28;20116;-72
2022/12/06 08:40:27;;;;;;;8.25;2.90;;;3.50;99.90;;;;;;5049121;28;20124;-71
2022/12/06 08:42:53;;;;;;;6.25;2.47;;;3.70;99.90;;;;;;5043983;28;20228;-71
2022/12/06 08:45:18;;;;;;;6.68;2.63;;;3.90;99.90;;;;;;5040904;28;20423;-72
2022/12/06 08:47:44;;;;;;;6.50;2.45;;;4.00;99.90;;;;;;5044625;28;20028;-72
2022/12/06 08:50:09;;;;;;;7.72;2.30;;;4.10;99.90;;;;;;5042719;28;20033;-72
2022/12/06 08:52:35;;;;;;;7.47;2.42;;;4.20;99.90;;;;;;5039791;28;20036;-72
2022/12/06 08:55:01;;;;;;;6.32;2.10;;;4.40;99.90;;;;;;5046648;28;20032;-74
2022/12/06 08:57:26;;;;;;;9.70;2.70;;;4.60;99.90;;;;;;5047194;28;20100;-72
2022/12/06 08:59:52;;;;;;;7.53;2.08;;;4.80;99.90;;;;;;5047321;28;20079;-72
2022/12/06 09:02:18;;;;;;;7.05;2.50;;;4.90;99.90;;;;;;5045588;28;20037;-72
2022/12/06 09:04:44;;;;;;;7.65;2.20;;;5.30;99.90;;;;;;5047439;28;20039;-72
2022/12/06 09:07:09;;;;;;;9.25;2.28;;;5.50;99.90;;;;;;5048755;28;20027;-72
2022/12/06 09:09:35;;;;;;;7.53;3.05;;;5.70;99.90;;;;;;5048169;28;20033;-72
2022/12/06 09:12:00;;;;;;;5.22;2.33;;;5.90;99.90;;;;;;5035774;28;20031;-72
2022/12/06 09:14:26;;;;;;;9.30;2.17;;;6.20;99.90;;;;;;5063262;28;20092;-71
2022/12/06 09:16:51;;;;;;;7.57;1.85;;;6.40;99.90;;;;;;5047834;28;20445;-72
2022/12/06 09:19:17;;;;;;;8.73;2.20;;;6.80;98.60;;;;;;4348484;28;9999975;-72
2022/12/06 09:21:45;;;;;;;5.40;1.42;;;7.40;97.00;;;;;;5042728;28;20484;-72
2022/12/06 09:24:15;;;;;;;3.47;1.42;;;7.90;95.20;;;;;;5043732;28;20055;-72
2022/12/06 09:26:41;;;;;;;5.60;1.63;;;7.70;93.40;;;;;;5031431;28;20372;-72
2022/12/06 09:29:07;;;;;;;3.78;1.40;;;7.20;95.40;;;;;;5037145;28;20027;-73
2022/12/06 09:31:32;;;;;;;3.60;1.40;;;7.00;95.70;;;;;;5033520;28;20049;-72
2022/12/06 09:33:58;;;;;;;2.75;1.58;;;6.90;95.50;;;;;;5029467;28;20053;-72
2022/12/06 09:36:26;;;;;;;5.95;1.98;;;6.50;95.70;;;;;;5031561;28;20127;-72
2022/12/06 09:39:08;;;;;;;9.20;2.40;;;6.50;98.50;;;;;;5031727;28;20025;-70
2022/12/06 09:42:01;;;;;;;6.60;1.83;;;6.20;97.80;;;;;;5029114;28;20025;-70
2022/12/06 09:44:53;;;;;;;9.93;2.35;;;6.20;98.40;;;;;;5017382;28;20025;-71
2022/12/06 09:47:43;;;;;;;5.15;2.20;;;6.10;99.10;;;;;;5022534;28;20425;-71
2022/12/06 09:50:23;;;;;;;6.18;1.70;;;6.30;99.30;;;;;;5034836;28;20124;-71
2022/12/06 09:53:08;;;;;;;7.88;1.60;;;6.40;98.10;;;;;;5030557;28;20090;-71
2022/12/06 09:56:02;;;;;;;7.50;2.15;;;6.60;97.70;;;;;;5041186;28;20496;-72
2022/12/06 09:58:47;;;;;;;4.25;1.95;;;6.90;96.10;;;;;;5035516;28;20342;-72
2022/12/06 10:01:27;;;;;;;4.05;1.65;;;7.50;94.40;;;;;;5034991;28;20037;-71
2022/12/06 10:04:10;;;;;;;5.35;1.95;;;8.10;92.20;;;;;;5033435;28;20130;-71
2022/12/06 10:06:48;;;;;;;7.25;2.20;;;8.80;88.80;;;;;;5032184;28;20467;-71
2022/12/06 10:09:43;;;;;;;4.60;1.40;;;9.30;82.70;;;;;;5036159;28;20438;-71
2022/12/06 10:12:22;;;;;;;7.25;1.98;;;9.50;80.10;;;;;;5015148;28;20439;-71
2022/12/06 10:15:11;;;;;;;4.70;1.25;;;9.70;80.60;;;;;;4388260;28;10001181;-72
2022/12/06 10:17:49;;;;;;;4.05;1.52;;;9.60;76.40;;;;;;5016217;28;20255;-72
2022/12/06 10:20:30;;;;;;;4.68;1.50;;;9.60;77.30;;;;;;5029991;28;20260;-71
2022/12/06 10:23:15;;;;;;;4.00;1.40;;;9.50;77.90;;;;;;5026230;28;20349;-71
2022/12/06 10:26:20;;;;;;;6.45;1.95;;;9.50;75.00;;;;;;5027736;28;20043;-72
2022/12/06 10:28:51;;;;;;;2.88;1.48;;;9.40;80.90;;;;;;5007307;28;20041;-72
2022/12/06 10:31:38;;;;;;;4.27;1.57;;;9.30;80.70;;;;;;5031845;28;20432;-71
2022/12/06 10:34:35;;;;;;;4.22;1.60;;;9.30;80.80;;;;;;5029619;28;20028;-71
2022/12/06 10:37:19;;;;;;;2.15;1.17;;;9.20;76.00;;;;;;5023207;28;20051;-71
2022/12/06 10:39:52;;;;;;;2.03;1.58;;;8.90;79.90;;;;;;5037068;28;20575;-71
2022/12/06 10:42:43;;;;;;;4.63;1.88;;;8.60;82.40;;;;;;5031974;28;20384;-71
2022/12/06 10:48:28;;;;;;;26.35;8.77;;;7.90;90.30;;;;;;5033929;28;20303;-71
2022/12/06 10:51:02;;;;;;;44.08;13.93;;;7.40;91.20;;;;;;5032768;28;20516;-71
2022/12/06 10:53:33;;;;;;;65.75;19.63;;;7.10;92.30;;;;;;5035739;28;20700;-71
2022/12/06 10:56:13;;;;;;;211.80;53.40;;;7.00;92.50;;;;;;5036262;28;20036;-72
2022/12/06 10:58:46;;;;;;;41.10;11.57;;;7.10;93.60;;;;;;5038558;28;20029;-71
2022/12/06 11:01:17;;;;;;;28.08;8.88;;;7.20;91.80;;;;;;5034493;28;20029;-71
2022/12/06 11:04:08;;;;;;;7.53;3.45;;;7.30;91.40;;;;;;5039082;28;20514;-71
2022/12/06 11:06:54;;;;;;;22.02;7.18;;;7.60;91.10;;;;;;5031642;28;20025;-72
2022/12/06 11:09:56;;;;;;;4.93;1.90;;;8.00;88.80;;;;;;5040979;28;20110;-71
2022/12/06 11:12:30;;;;;;;6.80;1.98;;;8.50;87.60;;;;;;4976155;28;20038;-72
2022/12/06 11:15:20;;;;;;;2.97;1.55;;;9.40;79.60;;;;;;5027779;28;20165;-72
2022/12/06 11:17:51;;;;;;;2.70;1.60;;;9.60;75.10;;;;;;5035181;28;20044;-72
2022/12/06 11:20:22;;;;;;;5.55;2.35;;;10.00;71.40;;;;;;5035453;28;20107;-72
2022/12/06 11:23:10;;;;;;;3.70;1.73;;;10.50;74.70;;;;;;5034307;28;20387;-71
2022/12/06 11:25:40;;;;;;;3.45;1.35;;;10.40;65.80;;;;;;5033697;28;20122;-72
2022/12/06 11:28:35;;;;;;;4.30;1.50;;;10.50;68.80;;;;;;5034160;28;20389;-72
2022/12/06 11:31:14;;;;;;;6.22;1.45;;;10.90;70.90;;;;;;5033795;28;20025;-71
2022/12/06 11:33:40;;;;;;;4.25;1.50;;;10.90;64.70;;;;;;5039964;28;20040;-70
2022/12/06 11:36:07;;;;;;;2.05;1.10;;;10.70;65.80;;;;;;5042568;28;20025;-70
2022/12/06 11:38:35;;;;;;;3.97;1.45;;;10.60;65.20;;;;;;5040046;28;20073;-70
2022/12/06 11:41:03;;;;;;;3.33;1.40;;;10.60;69.00;;;;;;5041480;28;20090;-70
2022/12/06 11:43:34;;;;;;;4.18;1.55;;;10.90;65.60;;;;;;5046291;28;20134;-70
2022/12/06 11:46:02;;;;;;;3.40;1.10;;;11.30;69.70;;;;;;5033447;28;20024;-70
2022/12/06 11:48:31;;;;;;;4.00;1.30;;;11.80;67.60;;;;;;5047667;28;20073;-71
2022/12/06 11:50:57;;;;;;;2.35;1.10;;;12.20;61.50;;;;;;5026868;28;20091;-70
2022/12/06 11:53:26;;;;;;;4.05;1.13;;;12.10;62.80;;;;;;5025581;28;20047;-71
2022/12/06 11:55:55;;;;;;;2.75;1.00;;;12.30;62.80;;;;;;5033923;28;20079;-70
2022/12/06 11:58:26;;;;;;;2.90;1.23;;;12.40;59.60;;;;;;4692052;28;10000339;-70
2022/12/06 12:00:55;;;;;;;3.88;1.30;;;12.60;61.10;;;;;;5034768;28;20282;-70
2022/12/06 12:03:35;;;;;;;3.38;1.25;;;12.90;57.90;;;;;;5033844;28;20037;-71
2022/12/06 12:06:25;;;;;;;5.28;1.40;;;12.80;60.50;;;;;;5012769;28;20128;-70
2022/12/06 12:08:56;;;;;;;2.75;1.17;;;13.20;59.50;;;;;;5035703;28;20028;-70
2022/12/06 12:11:33;;;;;;;2.33;1.10;;;12.30;57.90;;;;;;5033129;28;20032;-70
2022/12/06 12:14:13;;;;;;;3.58;1.23;;;12.00;60.60;;;;;;5045113;28;20597;-71
2022/12/06 12:16:49;;;;;;;5.25;1.20;;;11.90;66.30;;;;;;5048304;28;20017;-71
2022/12/06 12:19:53;;;;;;;3.45;1.40;;;12.10;63.60;;;;;;5035656;28;20032;-70
2022/12/06 12:22:28;;;;;;;2.33;1.25;;;12.30;62.90;;;;;;5030974;28;20156;-70
2022/12/06 12:25:03;;;;;;;4.57;1.40;;;12.20;60.10;;;;;;4693472;28;9999776;-70
2022/12/06 12:27:38;;;;;;;5.30;1.60;;;12.10;58.80;;;;;;5023773;28;20475;-70
2022/12/06 12:30:38;;;;;;;3.97;1.40;;;12.20;63.00;;;;;;5030122;28;20044;-70
2022/12/06 12:33:06;;;;;;;4.68;1.33;;;11.50;60.60;;;;;;5033735;28;20032;-71
2022/12/06 12:35:36;;;;;;;4.70;1.30;;;11.50;62.50;;;;;;5031224;28;20504;-70
2022/12/06 12:38:36;;;;;;;2.90;1.42;;;10.50;63.30;;;;;;5028807;28;20458;-70
2022/12/06 12:41:16;;;;;;;4.10;1.50;;;10.60;71.10;;;;;;5035460;28;20119;-71
2022/12/06 12:43:52;;;;;;;2.40;1.20;;;10.80;67.60;;;;;;5019062;28;20164;-70
2022/12/06 12:46:20;;;;;;;3.20;1.20;;;10.60;64.90;;;;;;5025439;28;20305;-70
2022/12/06 12:48:48;;;;;;;5.45;1.40;;;10.50;67.00;;;;;;5036789;28;20483;-70
2022/12/06 12:51:20;;;;;;;1.90;1.20;;;10.30;65.70;;;;;;5028644;28;20513;-70
2022/12/06 12:53:47;;;;;;;;;;;10.30;73.70;;;;;;5024992;28;20045;-70
2022/12/06 12:56:12;;;;;;;5.00;1.30;;;10.50;69.40;;;;;;5029633;28;20294;-70
2022/12/06 12:58:39;;;;;;;2.28;1.15;;;10.80;68.00;;;;;;5033038;28;20052;-71
2022/12/06 13:01:24;;;;;;;2.95;0.85;;;11.00;67.30;;;;;;5027900;28;20063;-71
2022/12/06 13:04:01;;;;;;;2.55;1.05;;;11.20;66.50;;;;;;5029916;28;20037;-71
2022/12/06 13:06:46;;;;;;;4.28;1.00;;;10.90;60.90;;;;;;5028797;28;20033;-71
2022/12/06 13:09:24;;;;;;;4.20;1.27;;;11.00;66.30;;;;;;5027642;28;20025;-72
2022/12/06 13:11:58;;;;;;;5.22;1.10;;;10.80;63.30;;;;;;5031530;28;20052;-72
2022/12/06 13:14:26;;;;;;;3.83;1.60;;;10.60;66.30;;;;;;5028547;28;20607;-72
2022/12/06 13:16:54;;;;;;;2.80;1.25;;;10.50;68.30;;;;;;5027367;28;20029;-71
2022/12/06 13:19:37;;;;;;;3.83;1.30;;;10.50;66.30;;;;;;5029222;28;20799;-72
2022/12/06 13:22:04;;;;;;;8.75;1.40;;;10.50;65.70;;;;;;5030598;28;20119;-71
2022/12/06 13:24:32;;;;;;;2.20;1.00;;;10.60;64.30;;;;;;5028815;28;20048;-71
2022/12/06 13:27:06;;;;;;;2.42;0.93;;;10.70;65.90;;;;;;5028121;28;20175;-71
2022/12/06 13:29:37;;;;;;;2.85;1.02;;;10.60;63.50;;;;;;5036367;28;20190;-71
2022/12/06 13:32:17;;;;;;;1.88;0.90;;;10.40;63.00;;;;;;5050204;28;20031;-71
2022/12/06 13:35:06;;;;;;;1.67;1.00;;;10.40;66.90;;;;;;5050024;28;20560;-72
2022/12/06 13:37:51;;;;;;;4.35;0.80;;;10.30;69.00;;;;;;5020546;28;20128;-72
2022/12/06 13:40:31;;;;;;;5.85;2.33;;;10.40;69.60;;;;;;5038198;28;20381;-71
2022/12/06 13:42:58;;;;;;;5.67;1.00;;;10.50;67.40;;;;;;5036914;28;20025;-71
2022/12/06 13:45:44;;;;;;;1.50;0.88;;;10.20;64.10;;;;;;5036467;28;20369;-71